sensor_id;sensor_type;location;lat;lon;timestamp;temperature;humidity
41722;DHT22;27407;24.142;-110.310;2023-12-29T00:22:51;22.70;99.90
41722;DHT22;27407;24.142;-110.310;2023-12-29T01:30:10;20.40;99.90
41722;DHT22;27407;24.142;-110.310;2023-12-29T01:36:29;20.30;99.90
41722;DHT22;27407;24.142;-110.310;2023-12-29T01:45:50;20.20;99.90
41722;DHT22;27407;24.142;-110.310;2023-12-29T02:13:24;20.00;99.90
41722;DHT22;27407;24.142;-110.310;2023-12-29T02:16:27;19.90;99.90
41722;DHT22;27407;24.142;-110.310;2023-12-29T02:19:40;19.80;99.90
41722;DHT22;27407;24.142;-110.310;2023-12-29T02:22:56;19.70;99.90
41722;DHT22;27407;24.142;-110.310;2023-12-29T02:26:22;19.70;99.90
41722;DHT22;27407;24.142;-110.310;2023-12-29T02:33:19;19.50;99.90
41722;DHT22;27407;24.142;-110.310;2023-12-29T03:30:20;18.50;99.90
41722;DHT22;27407;24.142;-110.310;2023-12-29T04:14:05;17.80;99.90
41722;DHT22;27407;24.142;-110.310;2023-12-29T04:16:45;17.80;99.90
41722;DHT22;27407;24.142;-110.310;2023-12-29T04:19:44;17.80;99.90
41722;DHT22;27407;24.142;-110.310;2023-12-29T04:30:03;17.70;99.90
41722;DHT22;27407;24.142;-110.310;2023-12-29T04:32:51;17.60;99.90
41722;DHT22;27407;24.142;-110.310;2023-12-29T04:35:41;17.60;99.90
41722;DHT22;27407;24.142;-110.310;2023-12-29T04:48:30;17.40;99.90
41722;DHT22;27407;24.142;-110.310;2023-12-29T04:51:36;17.30;99.90
41722;DHT22;27407;24.142;-110.310;2023-12-29T05:00:43;17.20;99.90
41722;DHT22;27407;24.142;-110.310;2023-12-29T05:03:54;17.10;99.90
41722;DHT22;27407;24.142;-110.310;2023-12-29T05:20:41;17.10;99.90
41722;DHT22;27407;24.142;-110.310;2023-12-29T05:33:48;17.00;99.90
41722;DHT22;27407;24.142;-110.310;2023-12-29T05:36:55;16.90;99.90
41722;DHT22;27407;24.142;-110.310;2023-12-29T06:06:29;16.90;99.90
41722;DHT22;27407;24.142;-110.310;2023-12-29T06:12:28;16.90;99.90
41722;DHT22;27407;24.142;-110.310;2023-12-29T06:14:55;16.90;99.90
41722;DHT22;27407;24.142;-110.310;2023-12-29T06:20:55;16.70;99.90
41722;DHT22;27407;24.142;-110.310;2023-12-29T06:23:22;16.50;99.90
41722;DHT22;27407;24.142;-110.310;2023-12-29T06:26:02;16.50;99.90
41722;DHT22;27407;24.142;-110.310;2023-12-29T06:28:29;16.40;99.90
41722;DHT22;27407;24.142;-110.310;2023-12-29T06:30:58;16.20;99.90
41722;DHT22;27407;24.142;-110.310;2023-12-29T06:43:43;16.00;99.90
41722;DHT22;27407;24.142;-110.310;2023-12-29T06:46:25;16.10;99.90
41722;DHT22;27407;24.142;-110.310;2023-12-29T07:04:40;16.10;99.90
41722;DHT22;27407;24.142;-110.310;2023-12-29T07:14:37;16.20;99.90
41722;DHT22;27407;24.142;-110.310;2023-12-29T07:41:56;16.00;99.90
41722;DHT22;27407;24.142;-110.310;2023-12-29T07:44:25;15.90;99.90
41722;DHT22;27407;24.142;-110.310;2023-12-29T07:46:52;15.80;99.90
41722;DHT22;27407;24.142;-110.310;2023-12-29T07:49:24;15.70;99.90
41722;DHT22;27407;24.142;-110.310;2023-12-29T07:51:54;15.60;99.90
41722;DHT22;27407;24.142;-110.310;2023-12-29T07:54:31;15.50;99.90
41722;DHT22;27407;24.142;-110.310;2023-12-29T07:56:58;15.40;99.90
41722;DHT22;27407;24.142;-110.310;2023-12-29T07:59:25;15.30;99.90
41722;DHT22;27407;24.142;-110.310;2023-12-29T08:01:52;15.20;99.90
41722;DHT22;27407;24.142;-110.310;2023-12-29T08:04:19;15.10;99.90
41722;DHT22;27407;24.142;-110.310;2023-12-29T08:06:49;15.00;99.90
41722;DHT22;27407;24.142;-110.310;2023-12-29T08:09:18;14.90;99.90
41722;DHT22;27407;24.142;-110.310;2023-12-29T08:11:46;14.90;99.90
41722;DHT22;27407;24.142;-110.310;2023-12-29T08:14:12;14.90;99.90
41722;DHT22;27407;24.142;-110.310;2023-12-29T08:20:09;14.90;99.90
41722;DHT22;27407;24.142;-110.310;2023-12-29T08:22:51;14.90;99.90
41722;DHT22;27407;24.142;-110.310;2023-12-29T08:28:24;14.70;99.90
41722;DHT22;27407;24.142;-110.310;2023-12-29T08:30:51;14.60;99.90
41722;DHT22;27407;24.142;-110.310;2023-12-29T08:33:17;14.50;99.90
41722;DHT22;27407;24.142;-110.310;2023-12-29T08:35:44;14.50;99.90
41722;DHT22;27407;24.142;-110.310;2023-12-29T08:38:12;14.50;99.90
41722;DHT22;27407;24.142;-110.310;2023-12-29T08:40:38;14.50;99.90
41722;DHT22;27407;24.142;-110.310;2023-12-29T08:46:27;14.40;99.90
41722;DHT22;27407;24.142;-110.310;2023-12-29T08:48:55;14.40;99.90
41722;DHT22;27407;24.142;-110.310;2023-12-29T08:51:22;14.40;99.90
41722;DHT22;27407;24.142;-110.310;2023-12-29T08:53:49;14.30;99.90
41722;DHT22;27407;24.142;-110.310;2023-12-29T08:56:15;14.20;99.90
41722;DHT22;27407;24.142;-110.310;2023-12-29T08:58:42;14.20;99.90
41722;DHT22;27407;24.142;-110.310;2023-12-29T09:01:09;14.30;99.90
41722;DHT22;27407;24.142;-110.310;2023-12-29T09:03:35;14.20;99.90
41722;DHT22;27407;24.142;-110.310;2023-12-29T09:06:11;14.10;99.90
41722;DHT22;27407;24.142;-110.310;2023-12-29T09:08:38;14.10;99.90
41722;DHT22;27407;24.142;-110.310;2023-12-29T09:11:05;14.10;99.90
41722;DHT22;27407;24.142;-110.310;2023-12-29T09:13:31;14.00;99.90
41722;DHT22;27407;24.142;-110.310;2023-12-29T09:15:59;14.00;99.90
41722;DHT22;27407;24.142;-110.310;2023-12-29T09:18:26;13.90;99.90
41722;DHT22;27407;24.142;-110.310;2023-12-29T09:20:52;13.90;99.90
41722;DHT22;27407;24.142;-110.310;2023-12-29T09:23:19;13.90;99.90
41722;DHT22;27407;24.142;-110.310;2023-12-29T09:25:46;13.90;99.90
41722;DHT22;27407;24.142;-110.310;2023-12-29T09:28:13;13.90;99.90
41722;DHT22;27407;24.142;-110.310;2023-12-29T09:30:39;13.80;99.90
41722;DHT22;27407;24.142;-110.310;2023-12-29T09:33:06;13.80;99.90
41722;DHT22;27407;24.142;-110.310;2023-12-29T09:35:33;13.70;99.90
41722;DHT22;27407;24.142;-110.310;2023-12-29T09:37:59;13.60;99.90
41722;DHT22;27407;24.142;-110.310;2023-12-29T09:40:26;13.50;99.90
41722;DHT22;27407;24.142;-110.310;2023-12-29T09:42:53;13.40;99.90
41722;DHT22;27407;24.142;-110.310;2023-12-29T09:45:24;13.50;99.90
41722;DHT22;27407;24.142;-110.310;2023-12-29T09:47:55;13.50;99.90
41722;DHT22;27407;24.142;-110.310;2023-12-29T09:50:25;13.50;99.90
41722;DHT22;27407;24.142;-110.310;2023-12-29T09:52:53;13.50;99.90
41722;DHT22;27407;24.142;-110.310;2023-12-29T09:55:21;13.50;99.90
41722;DHT22;27407;24.142;-110.310;2023-12-29T09:57:48;13.50;99.90
41722;DHT22;27407;24.142;-110.310;2023-12-29T10:00:16;13.50;99.90
41722;DHT22;27407;24.142;-110.310;2023-12-29T10:02:43;13.50;99.90
41722;DHT22;27407;24.142;-110.310;2023-12-29T10:05:10;13.50;99.90
41722;DHT22;27407;24.142;-110.310;2023-12-29T10:07:37;13.50;99.90
41722;DHT22;27407;24.142;-110.310;2023-12-29T10:10:05;13.40;99.90
41722;DHT22;27407;24.142;-110.310;2023-12-29T10:12:36;13.40;99.90
41722;DHT22;27407;24.142;-110.310;2023-12-29T10:15:29;13.40;99.90
41722;DHT22;27407;24.142;-110.310;2023-12-29T10:18:42;13.30;99.90
41722;DHT22;27407;24.142;-110.310;2023-12-29T10:21:07;13.20;99.90
41722;DHT22;27407;24.142;-110.310;2023-12-29T10:23:50;13.10;99.90
41722;DHT22;27407;24.142;-110.310;2023-12-29T10:26:19;13.20;99.90
41722;DHT22;27407;24.142;-110.310;2023-12-29T10:28:47;13.20;99.90
41722;DHT22;27407;24.142;-110.310;2023-12-29T10:31:15;13.20;99.90
41722;DHT22;27407;24.142;-110.310;2023-12-29T10:33:45;13.10;99.90
41722;DHT22;27407;24.142;-110.310;2023-12-29T10:36:16;13.10;99.90
41722;DHT22;27407;24.142;-110.310;2023-12-29T10:38:43;13.10;99.90
41722;DHT22;27407;24.142;-110.310;2023-12-29T10:41:12;13.20;99.90
41722;DHT22;27407;24.142;-110.310;2023-12-29T10:43:40;13.20;99.90
41722;DHT22;27407;24.142;-110.310;2023-12-29T10:46:09;13.20;99.90
41722;DHT22;27407;24.142;-110.310;2023-12-29T10:48:39;13.20;99.90
41722;DHT22;27407;24.142;-110.310;2023-12-29T10:51:06;13.20;99.90
41722;DHT22;27407;24.142;-110.310;2023-12-29T10:53:34;13.20;99.90
41722;DHT22;27407;24.142;-110.310;2023-12-29T10:56:01;13.20;99.90
41722;DHT22;27407;24.142;-110.310;2023-12-29T10:58:29;13.20;99.90
41722;DHT22;27407;24.142;-110.310;2023-12-29T11:00:59;13.20;99.90
41722;DHT22;27407;24.142;-110.310;2023-12-29T11:03:28;13.10;99.90
41722;DHT22;27407;24.142;-110.310;2023-12-29T11:06:01;13.00;99.90
41722;DHT22;27407;24.142;-110.310;2023-12-29T11:08:39;12.90;99.90
41722;DHT22;27407;24.142;-110.310;2023-12-29T11:11:06;13.00;99.90
41722;DHT22;27407;24.142;-110.310;2023-12-29T11:13:34;13.00;99.90
41722;DHT22;27407;24.142;-110.310;2023-12-29T11:16:03;13.10;99.90
41722;DHT22;27407;24.142;-110.310;2023-12-29T11:18:58;13.10;99.90
41722;DHT22;27407;24.142;-110.310;2023-12-29T11:21:34;13.10;99.90
41722;DHT22;27407;24.142;-110.310;2023-12-29T11:24:04;13.10;99.90
41722;DHT22;27407;24.142;-110.310;2023-12-29T11:26:31;13.10;99.90
41722;DHT22;27407;24.142;-110.310;2023-12-29T11:28:58;13.20;99.90
41722;DHT22;27407;24.142;-110.310;2023-12-29T11:31:25;13.20;99.90
41722;DHT22;27407;24.142;-110.310;2023-12-29T11:34:00;13.10;99.90
41722;DHT22;27407;24.142;-110.310;2023-12-29T11:36:34;13.10;99.90
41722;DHT22;27407;24.142;-110.310;2023-12-29T11:42:02;13.10;99.90
41722;DHT22;27407;24.142;-110.310;2023-12-29T11:44:32;13.00;99.90
41722;DHT22;27407;24.142;-110.310;2023-12-29T11:46:59;13.00;99.90
41722;DHT22;27407;24.142;-110.310;2023-12-29T11:49:26;12.90;99.90
41722;DHT22;27407;24.142;-110.310;2023-12-29T11:51:53;12.90;99.90
41722;DHT22;27407;24.142;-110.310;2023-12-29T11:54:23;12.90;99.90
41722;DHT22;27407;24.142;-110.310;2023-12-29T11:56:50;12.80;99.90
41722;DHT22;27407;24.142;-110.310;2023-12-29T11:59:21;12.80;99.90
41722;DHT22;27407;24.142;-110.310;2023-12-29T12:01:53;12.70;99.90
41722;DHT22;27407;24.142;-110.310;2023-12-29T12:04:40;12.60;99.90
41722;DHT22;27407;24.142;-110.310;2023-12-29T12:07:16;12.60;99.90
41722;DHT22;27407;24.142;-110.310;2023-12-29T12:09:43;12.50;99.90
41722;DHT22;27407;24.142;-110.310;2023-12-29T12:12:10;12.50;99.90
41722;DHT22;27407;24.142;-110.310;2023-12-29T12:14:45;12.50;99.90
41722;DHT22;27407;24.142;-110.310;2023-12-29T12:17:12;12.50;99.90
41722;DHT22;27407;24.142;-110.310;2023-12-29T12:19:39;12.60;99.90
41722;DHT22;27407;24.142;-110.310;2023-12-29T12:22:06;12.60;99.90
41722;DHT22;27407;24.142;-110.310;2023-12-29T12:24:36;12.60;99.90
41722;DHT22;27407;24.142;-110.310;2023-12-29T12:27:08;12.60;99.90
41722;DHT22;27407;24.142;-110.310;2023-12-29T12:29:36;12.60;99.90
41722;DHT22;27407;24.142;-110.310;2023-12-29T12:32:03;12.60;99.90
41722;DHT22;27407;24.142;-110.310;2023-12-29T12:34:37;12.60;99.90
41722;DHT22;27407;24.142;-110.310;2023-12-29T12:37:05;12.70;99.90
41722;DHT22;27407;24.142;-110.310;2023-12-29T12:39:40;12.70;99.90
41722;DHT22;27407;24.142;-110.310;2023-12-29T12:42:07;12.70;99.90
41722;DHT22;27407;24.142;-110.310;2023-12-29T12:50:21;12.80;99.90
41722;DHT22;27407;24.142;-110.310;2023-12-29T12:52:48;12.80;99.90
41722;DHT22;27407;24.142;-110.310;2023-12-29T12:55:15;12.80;99.90
41722;DHT22;27407;24.142;-110.310;2023-12-29T12:57:42;12.80;99.90
41722;DHT22;27407;24.142;-110.310;2023-12-29T13:00:09;12.90;99.90
41722;DHT22;27407;24.142;-110.310;2023-12-29T13:02:36;12.90;99.90
41722;DHT22;27407;24.142;-110.310;2023-12-29T13:05:04;12.90;99.90
41722;DHT22;27407;24.142;-110.310;2023-12-29T13:07:34;12.90;99.90
41722;DHT22;27407;24.142;-110.310;2023-12-29T13:10:02;12.90;99.90
41722;DHT22;27407;24.142;-110.310;2023-12-29T13:12:30;12.90;99.90
41722;DHT22;27407;24.142;-110.310;2023-12-29T13:15:07;12.90;99.90
41722;DHT22;27407;24.142;-110.310;2023-12-29T13:17:36;12.90;99.90
41722;DHT22;27407;24.142;-110.310;2023-12-29T13:20:03;12.80;99.90
41722;DHT22;27407;24.142;-110.310;2023-12-29T13:22:30;12.80;99.90
41722;DHT22;27407;24.142;-110.310;2023-12-29T13:24:58;12.80;99.90
41722;DHT22;27407;24.142;-110.310;2023-12-29T13:27:25;12.80;99.90
41722;DHT22;27407;24.142;-110.310;2023-12-29T13:29:53;12.70;99.90
41722;DHT22;27407;24.142;-110.310;2023-12-29T13:32:22;12.70;99.90
41722;DHT22;27407;24.142;-110.310;2023-12-29T13:38:18;12.60;99.90
41722;DHT22;27407;24.142;-110.310;2023-12-29T13:40:59;12.60;99.90
41722;DHT22;27407;24.142;-110.310;2023-12-29T13:43:29;12.60;99.90
41722;DHT22;27407;24.142;-110.310;2023-12-29T13:45:57;12.60;99.90
41722;DHT22;27407;24.142;-110.310;2023-12-29T13:48:25;12.60;99.90
41722;DHT22;27407;24.142;-110.310;2023-12-29T13:50:53;12.60;99.90
41722;DHT22;27407;24.142;-110.310;2023-12-29T13:53:21;12.50;99.90
41722;DHT22;27407;24.142;-110.310;2023-12-29T13:55:49;12.50;99.90
41722;DHT22;27407;24.142;-110.310;2023-12-29T13:58:16;12.40;99.90
41722;DHT22;27407;24.142;-110.310;2023-12-29T14:00:44;12.40;99.90
41722;DHT22;27407;24.142;-110.310;2023-12-29T14:03:23;12.50;99.90
41722;DHT22;27407;24.142;-110.310;2023-12-29T14:05:59;12.40;99.90
41722;DHT22;27407;24.142;-110.310;2023-12-29T14:08:32;12.50;99.90
41722;DHT22;27407;24.142;-110.310;2023-12-29T14:11:09;12.40;99.90
41722;DHT22;27407;24.142;-110.310;2023-12-29T14:13:44;12.40;99.90
41722;DHT22;27407;24.142;-110.310;2023-12-29T14:16:11;12.50;99.90
41722;DHT22;27407;24.142;-110.310;2023-12-29T14:24:30;13.20;99.90
41722;DHT22;27407;24.142;-110.310;2023-12-29T14:34:25;14.00;99.90
41722;DHT22;27407;24.142;-110.310;2023-12-29T14:36:52;14.30;99.90
41722;DHT22;27407;24.142;-110.310;2023-12-29T14:39:19;14.60;99.90
41722;DHT22;27407;24.142;-110.310;2023-12-29T14:41:45;15.10;99.90
41722;DHT22;27407;24.142;-110.310;2023-12-29T14:44:12;15.40;99.90
41722;DHT22;27407;24.142;-110.310;2023-12-29T14:46:39;15.70;99.90
41722;DHT22;27407;24.142;-110.310;2023-12-29T14:49:06;15.90;99.90
41722;DHT22;27407;24.142;-110.310;2023-12-29T14:51:33;16.20;99.90
41722;DHT22;27407;24.142;-110.310;2023-12-29T14:59:57;16.80;99.90
41722;DHT22;27407;24.142;-110.310;2023-12-29T15:02:49;16.90;99.90
41722;DHT22;27407;24.142;-110.310;2023-12-29T15:05:39;17.00;99.90
41722;DHT22;27407;24.142;-110.310;2023-12-29T15:08:14;17.10;99.90
41722;DHT22;27407;24.142;-110.310;2023-12-29T15:11:02;17.20;99.90
41722;DHT22;27407;24.142;-110.310;2023-12-29T15:14:21;17.40;99.90
41722;DHT22;27407;24.142;-110.310;2023-12-29T15:16:57;17.50;99.90
41722;DHT22;27407;24.142;-110.310;2023-12-29T15:19:51;17.60;99.90
41722;DHT22;27407;24.142;-110.310;2023-12-29T15:25:57;18.10;99.90
41722;DHT22;27407;24.142;-110.310;2023-12-29T15:38:40;18.70;99.90
41722;DHT22;27407;24.142;-110.310;2023-12-29T15:41:16;19.20;99.90
41722;DHT22;27407;24.142;-110.310;2023-12-29T17:03:55;22.80;99.90
41722;DHT22;27407;24.142;-110.310;2023-12-29T17:07:16;23.00;99.90
41722;DHT22;27407;24.142;-110.310;2023-12-29T17:14:03;23.10;99.90
41722;DHT22;27407;24.142;-110.310;2023-12-29T17:26:50;23.50;99.90
41722;DHT22;27407;24.142;-110.310;2023-12-29T17:32:44;23.60;99.90
41722;DHT22;27407;24.142;-110.310;2023-12-29T17:35:20;23.60;99.90
41722;DHT22;27407;24.142;-110.310;2023-12-29T17:41:38;23.70;99.90
41722;DHT22;27407;24.142;-110.310;2023-12-29T17:44:11;24.00;99.90
41722;DHT22;27407;24.142;-110.310;2023-12-29T17:46:47;24.20;99.90
41722;DHT22;27407;24.142;-110.310;2023-12-29T17:49:18;24.20;99.90
41722;DHT22;27407;24.142;-110.310;2023-12-29T17:51:48;24.40;99.90
41722;DHT22;27407;24.142;-110.310;2023-12-29T17:54:24;24.60;99.90
41722;DHT22;27407;24.142;-110.310;2023-12-29T17:57:09;24.60;99.90
41722;DHT22;27407;24.142;-110.310;2023-12-29T17:59:55;24.30;99.90
41722;DHT22;27407;24.142;-110.310;2023-12-29T18:02:45;24.30;99.90
41722;DHT22;27407;24.142;-110.310;2023-12-29T18:05:46;24.40;99.90
41722;DHT22;27407;24.142;-110.310;2023-12-29T18:11:27;24.90;99.90
41722;DHT22;27407;24.142;-110.310;2023-12-29T18:13:59;25.10;99.90
41722;DHT22;27407;24.142;-110.310;2023-12-29T18:16:29;25.20;99.90
41722;DHT22;27407;24.142;-110.310;2023-12-29T18:19:17;25.30;99.90
41722;DHT22;27407;24.142;-110.310;2023-12-29T18:21:51;25.20;99.90
41722;DHT22;27407;24.142;-110.310;2023-12-29T18:24:18;25.40;99.90
41722;DHT22;27407;24.142;-110.310;2023-12-29T18:26:45;25.40;99.90
41722;DHT22;27407;24.142;-110.310;2023-12-29T18:29:19;25.60;99.90
41722;DHT22;27407;24.142;-110.310;2023-12-29T18:31:48;25.30;99.90
41722;DHT22;27407;24.142;-110.310;2023-12-29T18:34:26;25.70;99.90
41722;DHT22;27407;24.142;-110.310;2023-12-29T18:36:54;25.70;99.90
41722;DHT22;27407;24.142;-110.310;2023-12-29T18:39:43;25.90;99.90
41722;DHT22;27407;24.142;-110.310;2023-12-29T18:42:26;25.70;99.90
41722;DHT22;27407;24.142;-110.310;2023-12-29T18:44:54;25.70;99.90
41722;DHT22;27407;24.142;-110.310;2023-12-29T18:47:30;25.70;99.90
41722;DHT22;27407;24.142;-110.310;2023-12-29T18:50:05;26.00;99.90
41722;DHT22;27407;24.142;-110.310;2023-12-29T18:52:51;25.90;99.90
41722;DHT22;27407;24.142;-110.310;2023-12-29T18:55:22;26.20;99.90
41722;DHT22;27407;24.142;-110.310;2023-12-29T18:58:16;26.20;99.90
41722;DHT22;27407;24.142;-110.310;2023-12-29T19:01:10;26.90;99.90
41722;DHT22;27407;24.142;-110.310;2023-12-29T19:03:46;27.20;99.90
41722;DHT22;27407;24.142;-110.310;2023-12-29T19:06:57;27.00;99.90
